sensor_id;sensor_type;location;lat;lon;timestamp;temperature;humidity
15107;DHT22;7654;45.308;-75.096;2023-05-07T00:01:12;18.70;65.10
15107;DHT22;7654;45.308;-75.096;2023-05-07T00:03:44;18.30;66.70
15107;DHT22;7654;45.308;-75.096;2023-05-07T00:06:15;17.80;67.30
15107;DHT22;7654;45.308;-75.096;2023-05-07T00:08:48;17.40;67.30
15107;DHT22;7654;45.308;-75.096;2023-05-07T00:11:19;17.10;68.00
15107;DHT22;7654;45.308;-75.096;2023-05-07T00:13:50;16.80;67.40
15107;DHT22;7654;45.308;-75.096;2023-05-07T00:16:21;16.60;67.60
15107;DHT22;7654;45.308;-75.096;2023-05-07T00:18:53;16.50;68.50
15107;DHT22;7654;45.308;-75.096;2023-05-07T00:21:24;16.30;69.50
15107;DHT22;7654;45.308;-75.096;2023-05-07T00:23:57;16.10;70.40
15107;DHT22;7654;45.308;-75.096;2023-05-07T00:26:28;16.10;71.20
15107;DHT22;7654;45.308;-75.096;2023-05-07T00:28:58;16.10;71.70
15107;DHT22;7654;45.308;-75.096;2023-05-07T00:31:28;16.00;72.80
15107;DHT22;7654;45.308;-75.096;2023-05-07T00:33:59;15.90;72.90
15107;DHT22;7654;45.308;-75.096;2023-05-07T00:36:29;16.00;72.00
15107;DHT22;7654;45.308;-75.096;2023-05-07T00:39:02;15.90;72.80
15107;DHT22;7654;45.308;-75.096;2023-05-07T00:41:34;15.80;72.70
15107;DHT22;7654;45.308;-75.096;2023-05-07T00:44:04;15.90;73.40
15107;DHT22;7654;45.308;-75.096;2023-05-07T00:46:35;15.70;73.80
15107;DHT22;7654;45.308;-75.096;2023-05-07T00:49:06;15.70;74.00
15107;DHT22;7654;45.308;-75.096;2023-05-07T00:51:36;15.80;74.70
15107;DHT22;7654;45.308;-75.096;2023-05-07T00:54:09;15.70;75.00
15107;DHT22;7654;45.308;-75.096;2023-05-07T00:56:59;15.50;76.10
15107;DHT22;7654;45.308;-75.096;2023-05-07T00:59:30;15.40;76.20
15107;DHT22;7654;45.308;-75.096;2023-05-07T01:02:01;15.30;76.60
15107;DHT22;7654;45.308;-75.096;2023-05-07T01:04:32;15.20;77.40
15107;DHT22;7654;45.308;-75.096;2023-05-07T01:07:03;15.10;77.50
15107;DHT22;7654;45.308;-75.096;2023-05-07T01:09:35;15.00;76.70
15107;DHT22;7654;45.308;-75.096;2023-05-07T01:12:07;15.00;77.30
15107;DHT22;7654;45.308;-75.096;2023-05-07T01:14:38;14.80;77.80
15107;DHT22;7654;45.308;-75.096;2023-05-07T01:17:08;14.70;78.00
15107;DHT22;7654;45.308;-75.096;2023-05-07T01:19:39;14.60;78.70
15107;DHT22;7654;45.308;-75.096;2023-05-07T01:22:10;14.50;79.20
15107;DHT22;7654;45.308;-75.096;2023-05-07T01:24:44;14.40;79.70
15107;DHT22;7654;45.308;-75.096;2023-05-07T01:27:14;14.40;80.20
15107;DHT22;7654;45.308;-75.096;2023-05-07T01:29:44;14.40;80.40
15107;DHT22;7654;45.308;-75.096;2023-05-07T01:32:17;14.40;80.70
15107;DHT22;7654;45.308;-75.096;2023-05-07T01:34:50;14.50;81.20
15107;DHT22;7654;45.308;-75.096;2023-05-07T01:37:22;14.40;81.10
15107;DHT22;7654;45.308;-75.096;2023-05-07T01:39:55;14.40;80.90
15107;DHT22;7654;45.308;-75.096;2023-05-07T01:42:26;14.40;81.10
15107;DHT22;7654;45.308;-75.096;2023-05-07T01:44:56;14.40;81.80
15107;DHT22;7654;45.308;-75.096;2023-05-07T01:47:27;14.30;81.70
15107;DHT22;7654;45.308;-75.096;2023-05-07T01:49:57;14.20;82.60
15107;DHT22;7654;45.308;-75.096;2023-05-07T01:52:28;14.10;82.70
15107;DHT22;7654;45.308;-75.096;2023-05-07T01:55:02;14.00;83.50
15107;DHT22;7654;45.308;-75.096;2023-05-07T01:57:32;13.90;83.80
15107;DHT22;7654;45.308;-75.096;2023-05-07T02:00:03;13.80;84.50
15107;DHT22;7654;45.308;-75.096;2023-05-07T02:02:33;13.60;85.10
15107;DHT22;7654;45.308;-75.096;2023-05-07T02:05:05;13.50;84.90
15107;DHT22;7654;45.308;-75.096;2023-05-07T02:07:35;13.50;85.40
15107;DHT22;7654;45.308;-75.096;2023-05-07T02:10:08;13.40;86.40
15107;DHT22;7654;45.308;-75.096;2023-05-07T02:12:39;13.30;87.00
15107;DHT22;7654;45.308;-75.096;2023-05-07T02:15:09;13.20;87.30
15107;DHT22;7654;45.308;-75.096;2023-05-07T02:17:58;13.20;88.00
15107;DHT22;7654;45.308;-75.096;2023-05-07T02:20:28;13.00;88.30
15107;DHT22;7654;45.308;-75.096;2023-05-07T02:22:59;12.90;89.40
15107;DHT22;7654;45.308;-75.096;2023-05-07T02:25:31;12.80;89.70
15107;DHT22;7654;45.308;-75.096;2023-05-07T02:28:02;12.60;90.20
15107;DHT22;7654;45.308;-75.096;2023-05-07T02:30:32;12.50;90.70
15107;DHT22;7654;45.308;-75.096;2023-05-07T02:33:03;12.40;91.10
15107;DHT22;7654;45.308;-75.096;2023-05-07T02:35:33;12.30;91.50
15107;DHT22;7654;45.308;-75.096;2023-05-07T02:38:04;12.40;92.20
15107;DHT22;7654;45.308;-75.096;2023-05-07T02:40:36;12.30;92.40
15107;DHT22;7654;45.308;-75.096;2023-05-07T02:43:07;12.20;92.70
15107;DHT22;7654;45.308;-75.096;2023-05-07T02:45:38;12.10;93.20
15107;DHT22;7654;45.308;-75.096;2023-05-07T02:48:08;12.10;93.40
15107;DHT22;7654;45.308;-75.096;2023-05-07T02:50:39;12.00;93.80
15107;DHT22;7654;45.308;-75.096;2023-05-07T02:53:09;11.80;94.10
15107;DHT22;7654;45.308;-75.096;2023-05-07T02:55:41;11.70;94.60
15107;DHT22;7654;45.308;-75.096;2023-05-07T02:58:11;11.60;94.90
15107;DHT22;7654;45.308;-75.096;2023-05-07T03:00:41;11.50;95.30
15107;DHT22;7654;45.308;-75.096;2023-05-07T03:03:12;11.40;95.70
15107;DHT22;7654;45.308;-75.096;2023-05-07T03:05:42;11.40;96.20
15107;DHT22;7654;45.308;-75.096;2023-05-07T03:08:12;11.30;96.30
15107;DHT22;7654;45.308;-75.096;2023-05-07T03:10:44;11.20;96.80
15107;DHT22;7654;45.308;-75.096;2023-05-07T03:13:14;11.10;97.10
15107;DHT22;7654;45.308;-75.096;2023-05-07T03:15:45;11.00;97.50
15107;DHT22;7654;45.308;-75.096;2023-05-07T03:18:15;10.90;98.00
15107;DHT22;7654;45.308;-75.096;2023-05-07T03:20:47;10.80;98.50
15107;DHT22;7654;45.308;-75.096;2023-05-07T03:23:18;10.90;98.90
15107;DHT22;7654;45.308;-75.096;2023-05-07T03:25:53;11.10;98.70
15107;DHT22;7654;45.308;-75.096;2023-05-07T03:28:23;11.20;99.90
15107;DHT22;7654;45.308;-75.096;2023-05-07T03:30:53;11.20;99.90
15107;DHT22;7654;45.308;-75.096;2023-05-07T03:33:24;11.10;99.90
15107;DHT22;7654;45.308;-75.096;2023-05-07T03:35:55;10.90;99.90
15107;DHT22;7654;45.308;-75.096;2023-05-07T03:38:25;10.80;99.90
15107;DHT22;7654;45.308;-75.096;2023-05-07T03:40:58;10.70;99.90
15107;DHT22;7654;45.308;-75.096;2023-05-07T03:43:28;10.70;99.90
15107;DHT22;7654;45.308;-75.096;2023-05-07T03:45:59;10.70;99.90
15107;DHT22;7654;45.308;-75.096;2023-05-07T03:48:29;10.80;99.90
15107;DHT22;7654;45.308;-75.096;2023-05-07T03:50:59;10.90;99.90
15107;DHT22;7654;45.308;-75.096;2023-05-07T03:53:30;11.00;99.90
15107;DHT22;7654;45.308;-75.096;2023-05-07T03:56:02;11.10;99.90
15107;DHT22;7654;45.308;-75.096;2023-05-07T03:58:32;11.00;99.90
15107;DHT22;7654;45.308;-75.096;2023-05-07T04:01:03;11.00;99.90
15107;DHT22;7654;45.308;-75.096;2023-05-07T04:03:33;10.80;99.90
15107;DHT22;7654;45.308;-75.096;2023-05-07T04:06:04;10.60;99.90
15107;DHT22;7654;45.308;-75.096;2023-05-07T04:08:34;10.40;99.90
15107;DHT22;7654;45.308;-75.096;2023-05-07T04:11:06;10.30;99.90
15107;DHT22;7654;45.308;-75.096;2023-05-07T04:13:36;10.30;99.90
15107;DHT22;7654;45.308;-75.096;2023-05-07T04:16:08;10.40;99.90
15107;DHT22;7654;45.308;-75.096;2023-05-07T04:18:38;10.40;99.90
15107;DHT22;7654;45.308;-75.096;2023-05-07T04:21:14;10.40;99.90
15107;DHT22;7654;45.308;-75.096;2023-05-07T04:23:46;10.40;99.90
15107;DHT22;7654;45.308;-75.096;2023-05-07T04:26:18;10.40;99.90
15107;DHT22;7654;45.308;-75.096;2023-05-07T04:28:49;10.30;99.90
15107;DHT22;7654;45.308;-75.096;2023-05-07T04:31:19;10.40;99.90
15107;DHT22;7654;45.308;-75.096;2023-05-07T04:33:49;10.40;99.90
15107;DHT22;7654;45.308;-75.096;2023-05-07T04:36:20;10.30;99.90
15107;DHT22;7654;45.308;-75.096;2023-05-07T04:38:50;10.00;99.90
15107;DHT22;7654;45.308;-75.096;2023-05-07T04:41:22;9.80;99.90
15107;DHT22;7654;45.308;-75.096;2023-05-07T04:43:52;9.60;99.90
15107;DHT22;7654;45.308;-75.096;2023-05-07T04:46:22;9.50;99.90
15107;DHT22;7654;45.308;-75.096;2023-05-07T04:48:53;9.40;99.90
15107;DHT22;7654;45.308;-75.096;2023-05-07T04:51:23;9.40;99.90
15107;DHT22;7654;45.308;-75.096;2023-05-07T04:53:54;9.40;99.90
15107;DHT22;7654;45.308;-75.096;2023-05-07T04:56:28;9.40;99.90
15107;DHT22;7654;45.308;-75.096;2023-05-07T04:58:58;9.50;99.90
15107;DHT22;7654;45.308;-75.096;2023-05-07T05:01:29;9.50;99.90
15107;DHT22;7654;45.308;-75.096;2023-05-07T05:03:59;9.50;99.90
15107;DHT22;7654;45.308;-75.096;2023-05-07T05:06:30;9.40;99.90
15107;DHT22;7654;45.308;-75.096;2023-05-07T05:09:00;9.30;99.90
15107;DHT22;7654;45.308;-75.096;2023-05-07T05:11:32;9.30;99.90
15107;DHT22;7654;45.308;-75.096;2023-05-07T05:14:03;9.20;99.90
15107;DHT22;7654;45.308;-75.096;2023-05-07T05:16:33;9.20;99.90
15107;DHT22;7654;45.308;-75.096;2023-05-07T05:19:04;9.10;99.90
15107;DHT22;7654;45.308;-75.096;2023-05-07T05:21:34;9.10;99.90
15107;DHT22;7654;45.308;-75.096;2023-05-07T05:24:05;9.00;99.90
15107;DHT22;7654;45.308;-75.096;2023-05-07T05:26:37;9.00;99.90
15107;DHT22;7654;45.308;-75.096;2023-05-07T05:29:07;8.90;99.90
15107;DHT22;7654;45.308;-75.096;2023-05-07T05:31:38;8.90;99.90
15107;DHT22;7654;45.308;-75.096;2023-05-07T05:34:09;9.00;99.90
15107;DHT22;7654;45.308;-75.096;2023-05-07T05:36:40;8.90;99.90
15107;DHT22;7654;45.308;-75.096;2023-05-07T05:39:10;8.80;99.90
15107;DHT22;7654;45.308;-75.096;2023-05-07T05:41:42;8.80;99.90
15107;DHT22;7654;45.308;-75.096;2023-05-07T05:44:13;8.70;99.90
15107;DHT22;7654;45.308;-75.096;2023-05-07T05:46:43;8.60;99.90
15107;DHT22;7654;45.308;-75.096;2023-05-07T05:49:13;8.50;99.90
15107;DHT22;7654;45.308;-75.096;2023-05-07T05:51:44;8.40;99.90
15107;DHT22;7654;45.308;-75.096;2023-05-07T05:54:14;8.40;99.90
15107;DHT22;7654;45.308;-75.096;2023-05-07T05:56:46;8.40;99.90
15107;DHT22;7654;45.308;-75.096;2023-05-07T05:59:17;8.40;99.90
15107;DHT22;7654;45.308;-75.096;2023-05-07T06:01:47;8.40;99.90
15107;DHT22;7654;45.308;-75.096;2023-05-07T06:04:18;8.40;99.90
15107;DHT22;7654;45.308;-75.096;2023-05-07T06:06:48;8.50;99.90
15107;DHT22;7654;45.308;-75.096;2023-05-07T06:09:18;8.50;99.90
15107;DHT22;7654;45.308;-75.096;2023-05-07T06:11:50;8.50;99.90
15107;DHT22;7654;45.308;-75.096;2023-05-07T06:14:20;8.50;99.90
15107;DHT22;7654;45.308;-75.096;2023-05-07T06:16:51;8.50;99.90
15107;DHT22;7654;45.308;-75.096;2023-05-07T06:19:21;8.40;99.90
15107;DHT22;7654;45.308;-75.096;2023-05-07T06:21:52;8.30;99.90
15107;DHT22;7654;45.308;-75.096;2023-05-07T06:24:22;8.30;99.90
15107;DHT22;7654;45.308;-75.096;2023-05-07T06:26:55;8.20;99.90
15107;DHT22;7654;45.308;-75.096;2023-05-07T06:29:26;8.20;99.90
15107;DHT22;7654;45.308;-75.096;2023-05-07T06:32:06;8.10;99.90
15107;DHT22;7654;45.308;-75.096;2023-05-07T06:34:38;8.00;99.90
15107;DHT22;7654;45.308;-75.096;2023-05-07T06:37:08;8.00;99.90
15107;DHT22;7654;45.308;-75.096;2023-05-07T06:39:39;8.00;99.90
15107;DHT22;7654;45.308;-75.096;2023-05-07T06:42:11;8.00;99.90
15107;DHT22;7654;45.308;-75.096;2023-05-07T06:44:41;7.90;99.90
15107;DHT22;7654;45.308;-75.096;2023-05-07T06:47:11;7.80;99.90
15107;DHT22;7654;45.308;-75.096;2023-05-07T06:49:43;7.70;99.90
15107;DHT22;7654;45.308;-75.096;2023-05-07T06:52:13;7.60;99.90
15107;DHT22;7654;45.308;-75.096;2023-05-07T06:54:43;7.60;99.90
15107;DHT22;7654;45.308;-75.096;2023-05-07T06:57:15;7.50;99.90
15107;DHT22;7654;45.308;-75.096;2023-05-07T06:59:46;7.50;99.90
15107;DHT22;7654;45.308;-75.096;2023-05-07T07:02:16;7.50;99.90
15107;DHT22;7654;45.308;-75.096;2023-05-07T07:04:46;7.50;99.90
15107;DHT22;7654;45.308;-75.096;2023-05-07T07:07:16;7.50;99.90
15107;DHT22;7654;45.308;-75.096;2023-05-07T07:09:46;7.40;99.90
15107;DHT22;7654;45.308;-75.096;2023-05-07T07:12:18;7.50;99.90
15107;DHT22;7654;45.308;-75.096;2023-05-07T07:14:49;7.50;99.90
15107;DHT22;7654;45.308;-75.096;2023-05-07T07:17:19;7.50;99.90
15107;DHT22;7654;45.308;-75.096;2023-05-07T07:19:49;7.50;99.90
15107;DHT22;7654;45.308;-75.096;2023-05-07T07:22:19;7.40;99.90
15107;DHT22;7654;45.308;-75.096;2023-05-07T07:24:50;7.30;99.90
15107;DHT22;7654;45.308;-75.096;2023-05-07T07:27:22;7.20;99.90
15107;DHT22;7654;45.308;-75.096;2023-05-07T07:29:52;7.20;99.90
15107;DHT22;7654;45.308;-75.096;2023-05-07T07:32:23;7.20;99.90
15107;DHT22;7654;45.308;-75.096;2023-05-07T07:34:53;7.10;99.90
15107;DHT22;7654;45.308;-75.096;2023-05-07T07:37:24;7.10;99.90
15107;DHT22;7654;45.308;-75.096;2023-05-07T07:39:55;6.90;99.90
15107;DHT22;7654;45.308;-75.096;2023-05-07T07:42:26;6.80;99.90
15107;DHT22;7654;45.308;-75.096;2023-05-07T07:44:57;6.70;99.90
15107;DHT22;7654;45.308;-75.096;2023-05-07T07:47:27;6.60;99.90
15107;DHT22;7654;45.308;-75.096;2023-05-07T07:49:57;6.50;99.90
15107;DHT22;7654;45.308;-75.096;2023-05-07T07:52:28;6.40;99.90
15107;DHT22;7654;45.308;-75.096;2023-05-07T07:54:58;6.30;99.90
15107;DHT22;7654;45.308;-75.096;2023-05-07T07:57:30;6.10;99.90
15107;DHT22;7654;45.308;-75.096;2023-05-07T08:00:00;6.00;99.90
15107;DHT22;7654;45.308;-75.096;2023-05-07T08:02:30;5.90;99.90
15107;DHT22;7654;45.308;-75.096;2023-05-07T08:05:00;5.90;99.90
15107;DHT22;7654;45.308;-75.096;2023-05-07T08:07:31;6.00;99.90
15107;DHT22;7654;45.308;-75.096;2023-05-07T08:10:01;5.90;99.90
15107;DHT22;7654;45.308;-75.096;2023-05-07T08:12:33;5.90;99.90
15107;DHT22;7654;45.308;-75.096;2023-05-07T08:15:05;5.80;99.90
15107;DHT22;7654;45.308;-75.096;2023-05-07T08:17:35;5.80;99.90
15107;DHT22;7654;45.308;-75.096;2023-05-07T08:20:07;5.90;99.90
15107;DHT22;7654;45.308;-75.096;2023-05-07T08:22:38;6.10;99.90
15107;DHT22;7654;45.308;-75.096;2023-05-07T08:25:09;6.10;99.90
15107;DHT22;7654;45.308;-75.096;2023-05-07T08:27:41;6.20;99.90
15107;DHT22;7654;45.308;-75.096;2023-05-07T08:30:14;6.10;99.90
15107;DHT22;7654;45.308;-75.096;2023-05-07T08:32:44;6.10;99.90
15107;DHT22;7654;45.308;-75.096;2023-05-07T08:35:15;6.20;99.90
15107;DHT22;7654;45.308;-75.096;2023-05-07T08:37:45;6.20;99.90
15107;DHT22;7654;45.308;-75.096;2023-05-07T08:40:15;6.30;99.90
15107;DHT22;7654;45.308;-75.096;2023-05-07T08:42:49;6.20;99.90
15107;DHT22;7654;45.308;-75.096;2023-05-07T08:45:21;6.10;99.90
15107;DHT22;7654;45.308;-75.096;2023-05-07T08:47:54;6.10;99.90
15107;DHT22;7654;45.308;-75.096;2023-05-07T08:50:28;6.20;99.90
15107;DHT22;7654;45.308;-75.096;2023-05-07T08:52:58;6.20;99.90
15107;DHT22;7654;45.308;-75.096;2023-05-07T08:55:29;6.10;99.90
15107;DHT22;7654;45.308;-75.096;2023-05-07T08:58:01;6.10;99.90
15107;DHT22;7654;45.308;-75.096;2023-05-07T09:00:32;6.10;99.90
15107;DHT22;7654;45.308;-75.096;2023-05-07T09:03:03;6.10;99.90
15107;DHT22;7654;45.308;-75.096;2023-05-07T09:05:33;6.10;99.90
15107;DHT22;7654;45.308;-75.096;2023-05-07T09:08:04;6.10;99.90
15107;DHT22;7654;45.308;-75.096;2023-05-07T09:10:35;6.00;99.90
15107;DHT22;7654;45.308;-75.096;2023-05-07T09:13:07;6.00;99.90
15107;DHT22;7654;45.308;-75.096;2023-05-07T09:15:38;6.00;99.90
15107;DHT22;7654;45.308;-75.096;2023-05-07T09:18:09;6.00;99.90
15107;DHT22;7654;45.308;-75.096;2023-05-07T09:20:39;5.90;99.90
15107;DHT22;7654;45.308;-75.096;2023-05-07T09:23:10;5.80;99.90
15107;DHT22;7654;45.308;-75.096;2023-05-07T09:25:40;5.60;99.90
15107;DHT22;7654;45.308;-75.096;2023-05-07T09:28:12;5.40;99.90
15107;DHT22;7654;45.308;-75.096;2023-05-07T09:30:42;5.30;99.90
15107;DHT22;7654;45.308;-75.096;2023-05-07T09:33:12;5.20;99.90
15107;DHT22;7654;45.308;-75.096;2023-05-07T09:35:43;5.10;99.90
15107;DHT22;7654;45.308;-75.096;2023-05-07T09:38:13;4.90;99.90
15107;DHT22;7654;45.308;-75.096;2023-05-07T09:40:43;4.90;99.90
15107;DHT22;7654;45.308;-75.096;2023-05-07T09:43:15;4.90;99.90
15107;DHT22;7654;45.308;-75.096;2023-05-07T09:45:47;4.80;99.90
15107;DHT22;7654;45.308;-75.096;2023-05-07T09:48:19;4.70;99.90
15107;DHT22;7654;45.308;-75.096;2023-05-07T09:50:52;4.70;99.90
15107;DHT22;7654;45.308;-75.096;2023-05-07T09:53:26;4.70;99.90
15107;DHT22;7654;45.308;-75.096;2023-05-07T09:55:57;4.60;99.90
15107;DHT22;7654;45.308;-75.096;2023-05-07T09:58:34;4.60;99.90
15107;DHT22;7654;45.308;-75.096;2023-05-07T10:01:07;4.80;99.90
15107;DHT22;7654;45.308;-75.096;2023-05-07T10:03:40;5.00;99.90
15107;DHT22;7654;45.308;-75.096;2023-05-07T10:06:12;5.20;99.90
15107;DHT22;7654;45.308;-75.096;2023-05-07T10:08:43;5.50;99.90
15107;DHT22;7654;45.308;-75.096;2023-05-07T10:11:14;5.60;99.90
15107;DHT22;7654;45.308;-75.096;2023-05-07T10:13:46;5.70;99.90
15107;DHT22;7654;45.308;-75.096;2023-05-07T10:16:17;5.80;99.90
15107;DHT22;7654;45.308;-75.096;2023-05-07T10:18:48;5.80;99.90
15107;DHT22;7654;45.308;-75.096;2023-05-07T10:21:22;5.90;99.90
15107;DHT22;7654;45.308;-75.096;2023-05-07T10:23:59;6.00;99.90
15107;DHT22;7654;45.308;-75.096;2023-05-07T10:26:30;6.00;99.90
15107;DHT22;7654;45.308;-75.096;2023-05-07T10:29:07;6.00;99.90
15107;DHT22;7654;45.308;-75.096;2023-05-07T10:31:57;6.00;99.90
15107;DHT22;7654;45.308;-75.096;2023-05-07T10:34:34;6.00;99.90
15107;DHT22;7654;45.308;-75.096;2023-05-07T10:37:06;5.90;99.90
15107;DHT22;7654;45.308;-75.096;2023-05-07T10:39:37;6.00;99.90
15107;DHT22;7654;45.308;-75.096;2023-05-07T10:42:11;6.00;99.90
15107;DHT22;7654;45.308;-75.096;2023-05-07T10:44:43;6.10;99.90
15107;DHT22;7654;45.308;-75.096;2023-05-07T10:47:14;6.30;99.90
15107;DHT22;7654;45.308;-75.096;2023-05-07T10:50:22;6.40;99.90
15107;DHT22;7654;45.308;-75.096;2023-05-07T10:53:23;6.60;99.90
15107;DHT22;7654;45.308;-75.096;2023-05-07T10:59:33;7.00;99.90
15107;DHT22;7654;45.308;-75.096;2023-05-07T11:02:10;7.20;99.90
15107;DHT22;7654;45.308;-75.096;2023-05-07T11:04:42;7.40;99.90
15107;DHT22;7654;45.308;-75.096;2023-05-07T11:07:28;7.60;99.90
15107;DHT22;7654;45.308;-75.096;2023-05-07T11:10:05;7.80;99.90
15107;DHT22;7654;45.308;-75.096;2023-05-07T11:12:49;8.00;99.90
15107;DHT22;7654;45.308;-75.096;2023-05-07T11:15:39;8.20;99.90
15107;DHT22;7654;45.308;-75.096;2023-05-07T11:18:12;8.40;99.90
15107;DHT22;7654;45.308;-75.096;2023-05-07T11:21:00;8.50;99.90
15107;DHT22;7654;45.308;-75.096;2023-05-07T11:24:07;8.60;99.90
15107;DHT22;7654;45.308;-75.096;2023-05-07T11:26:48;8.90;99.90
15107;DHT22;7654;45.308;-75.096;2023-05-07T11:29:20;9.10;99.90
15107;DHT22;7654;45.308;-75.096;2023-05-07T11:31:50;9.20;99.90
15107;DHT22;7654;45.308;-75.096;2023-05-07T11:34:26;9.30;99.90
15107;DHT22;7654;45.308;-75.096;2023-05-07T11:36:56;9.50;99.90
15107;DHT22;7654;45.308;-75.096;2023-05-07T11:39:29;9.60;99.90
15107;DHT22;7654;45.308;-75.096;2023-05-07T11:42:01;9.80;99.90
15107;DHT22;7654;45.308;-75.096;2023-05-07T11:44:42;9.90;99.90
15107;DHT22;7654;45.308;-75.096;2023-05-07T11:47:18;10.00;99.90
15107;DHT22;7654;45.308;-75.096;2023-05-07T11:49:51;10.20;99.90
15107;DHT22;7654;45.308;-75.096;2023-05-07T11:52:22;10.20;99.90
15107;DHT22;7654;45.308;-75.096;2023-05-07T11:54:53;10.30;99.90
15107;DHT22;7654;45.308;-75.096;2023-05-07T11:57:24;10.30;99.90
15107;DHT22;7654;45.308;-75.096;2023-05-07T11:59:55;10.40;99.90
15107;DHT22;7654;45.308;-75.096;2023-05-07T12:02:26;10.40;99.90
15107;DHT22;7654;45.308;-75.096;2023-05-07T12:05:00;10.40;99.90
15107;DHT22;7654;45.308;-75.096;2023-05-07T12:07:32;10.50;99.90
15107;DHT22;7654;45.308;-75.096;2023-05-07T12:10:05;10.60;99.90
15107;DHT22;7654;45.308;-75.096;2023-05-07T12:12:39;10.70;99.90
15107;DHT22;7654;45.308;-75.096;2023-05-07T12:15:10;10.80;99.90
15107;DHT22;7654;45.308;-75.096;2023-05-07T12:17:40;10.90;99.90
15107;DHT22;7654;45.308;-75.096;2023-05-07T12:20:13;11.00;99.90
15107;DHT22;7654;45.308;-75.096;2023-05-07T12:22:43;11.10;99.90
15107;DHT22;7654;45.308;-75.096;2023-05-07T12:25:19;11.20;99.90
15107;DHT22;7654;45.308;-75.096;2023-05-07T12:27:52;11.30;99.90
15107;DHT22;7654;45.308;-75.096;2023-05-07T12:30:22;11.50;99.90
15107;DHT22;7654;45.308;-75.096;2023-05-07T12:32:53;11.60;99.90
15107;DHT22;7654;45.308;-75.096;2023-05-07T12:35:31;11.70;99.90
15107;DHT22;7654;45.308;-75.096;2023-05-07T12:38:02;11.90;99.90
15107;DHT22;7654;45.308;-75.096;2023-05-07T12:40:36;12.00;99.90
15107;DHT22;7654;45.308;-75.096;2023-05-07T12:43:07;12.20;99.90
15107;DHT22;7654;45.308;-75.096;2023-05-07T12:45:38;12.30;99.90
15107;DHT22;7654;45.308;-75.096;2023-05-07T12:48:10;12.40;99.90
15107;DHT22;7654;45.308;-75.096;2023-05-07T12:50:42;12.60;99.90
15107;DHT22;7654;45.308;-75.096;2023-05-07T12:53:13;12.70;99.90
15107;DHT22;7654;45.308;-75.096;2023-05-07T12:55:44;12.80;99.90
15107;DHT22;7654;45.308;-75.096;2023-05-07T12:58:18;13.00;99.90
15107;DHT22;7654;45.308;-75.096;2023-05-07T13:00:50;13.10;99.90
15107;DHT22;7654;45.308;-75.096;2023-05-07T13:03:26;13.30;99.90
15107;DHT22;7654;45.308;-75.096;2023-05-07T13:05:59;13.40;99.90
15107;DHT22;7654;45.308;-75.096;2023-05-07T13:08:33;13.60;99.90
15107;DHT22;7654;45.308;-75.096;2023-05-07T13:11:08;13.80;99.90
15107;DHT22;7654;45.308;-75.096;2023-05-07T13:13:39;13.90;99.90
15107;DHT22;7654;45.308;-75.096;2023-05-07T13:16:10;14.00;99.90
15107;DHT22;7654;45.308;-75.096;2023-05-07T13:18:41;14.20;99.90
15107;DHT22;7654;45.308;-75.096;2023-05-07T13:21:16;14.30;99.90
15107;DHT22;7654;45.308;-75.096;2023-05-07T13:23:46;14.50;99.90
15107;DHT22;7654;45.308;-75.096;2023-05-07T13:26:16;14.60;99.90
15107;DHT22;7654;45.308;-75.096;2023-05-07T13:28:53;14.70;99.90
15107;DHT22;7654;45.308;-75.096;2023-05-07T13:31:24;14.90;99.90
15107;DHT22;7654;45.308;-75.096;2023-05-07T13:33:54;15.00;99.90
15107;DHT22;7654;45.308;-75.096;2023-05-07T13:36:26;15.10;99.90
15107;DHT22;7654;45.308;-75.096;2023-05-07T13:38:56;15.30;99.90
15107;DHT22;7654;45.308;-75.096;2023-05-07T13:41:28;15.40;99.90
15107;DHT22;7654;45.308;-75.096;2023-05-07T13:43:58;15.60;99.90
15107;DHT22;7654;45.308;-75.096;2023-05-07T13:46:28;15.80;99.90
15107;DHT22;7654;45.308;-75.096;2023-05-07T13:48:59;15.90;99.90
15107;DHT22;7654;45.308;-75.096;2023-05-07T13:51:31;16.00;99.90
15107;DHT22;7654;45.308;-75.096;2023-05-07T13:54:01;16.20;99.90
15107;DHT22;7654;45.308;-75.096;2023-05-07T13:56:32;16.30;99.90
15107;DHT22;7654;45.308;-75.096;2023-05-07T13:59:03;16.40;99.90
15107;DHT22;7654;45.308;-75.096;2023-05-07T14:01:34;16.50;99.90
15107;DHT22;7654;45.308;-75.096;2023-05-07T14:04:15;16.60;99.90
15107;DHT22;7654;45.308;-75.096;2023-05-07T14:06:47;16.70;99.90
15107;DHT22;7654;45.308;-75.096;2023-05-07T14:09:17;16.80;99.90
15107;DHT22;7654;45.308;-75.096;2023-05-07T14:11:47;16.90;99.90
15107;DHT22;7654;45.308;-75.096;2023-05-07T14:14:19;17.10;99.90
15107;DHT22;7654;45.308;-75.096;2023-05-07T14:16:49;17.20;99.90
15107;DHT22;7654;45.308;-75.096;2023-05-07T14:19:20;17.40;99.90
15107;DHT22;7654;45.308;-75.096;2023-05-07T14:21:53;17.50;99.90
15107;DHT22;7654;45.308;-75.096;2023-05-07T14:24:26;17.70;99.90
15107;DHT22;7654;45.308;-75.096;2023-05-07T14:27:05;17.80;99.90
15107;DHT22;7654;45.308;-75.096;2023-05-07T14:29:35;18.00;99.90
15107;DHT22;7654;45.308;-75.096;2023-05-07T14:32:06;18.10;99.90
15107;DHT22;7654;45.308;-75.096;2023-05-07T14:34:36;18.20;99.90
15107;DHT22;7654;45.308;-75.096;2023-05-07T14:37:08;18.30;99.90
15107;DHT22;7654;45.308;-75.096;2023-05-07T14:39:38;18.40;99.90
15107;DHT22;7654;45.308;-75.096;2023-05-07T14:42:09;18.50;99.90
15107;DHT22;7654;45.308;-75.096;2023-05-07T14:44:40;18.70;99.90
15107;DHT22;7654;45.308;-75.096;2023-05-07T14:47:12;18.90;99.90
15107;DHT22;7654;45.308;-75.096;2023-05-07T14:49:46;18.90;99.90
15107;DHT22;7654;45.308;-75.096;2023-05-07T14:52:18;19.10;99.90
15107;DHT22;7654;45.308;-75.096;2023-05-07T14:54:48;19.10;99.90
15107;DHT22;7654;45.308;-75.096;2023-05-07T14:57:19;19.20;99.90
15107;DHT22;7654;45.308;-75.096;2023-05-07T14:59:49;19.30;99.50
15107;DHT22;7654;45.308;-75.096;2023-05-07T15:02:20;19.40;99.90
15107;DHT22;7654;45.308;-75.096;2023-05-07T15:04:51;19.50;99.90
15107;DHT22;7654;45.308;-75.096;2023-05-07T15:07:22;19.60;99.90
15107;DHT22;7654;45.308;-75.096;2023-05-07T15:09:53;19.70;99.40
15107;DHT22;7654;45.308;-75.096;2023-05-07T15:12:37;19.70;99.30
15107;DHT22;7654;45.308;-75.096;2023-05-07T15:15:08;19.80;98.90
15107;DHT22;7654;45.308;-75.096;2023-05-07T15:17:39;19.90;97.00
15107;DHT22;7654;45.308;-75.096;2023-05-07T15:20:11;20.10;96.30
15107;DHT22;7654;45.308;-75.096;2023-05-07T15:22:43;20.20;98.00
15107;DHT22;7654;45.308;-75.096;2023-05-07T15:25:14;20.40;96.10
15107;DHT22;7654;45.308;-75.096;2023-05-07T15:27:44;20.50;92.80
15107;DHT22;7654;45.308;-75.096;2023-05-07T15:30:14;20.50;92.80
15107;DHT22;7654;45.308;-75.096;2023-05-07T15:32:45;20.70;93.70
15107;DHT22;7654;45.308;-75.096;2023-05-07T15:35:16;20.70;94.90
15107;DHT22;7654;45.308;-75.096;2023-05-07T15:37:51;20.90;90.80
15107;DHT22;7654;45.308;-75.096;2023-05-07T15:40:22;21.00;90.60
15107;DHT22;7654;45.308;-75.096;2023-05-07T15:42:54;21.10;90.10
15107;DHT22;7654;45.308;-75.096;2023-05-07T15:45:25;21.20;91.10
15107;DHT22;7654;45.308;-75.096;2023-05-07T15:47:56;21.40;89.10
15107;DHT22;7654;45.308;-75.096;2023-05-07T15:50:45;21.50;85.40
15107;DHT22;7654;45.308;-75.096;2023-05-07T15:53:17;21.60;84.70
15107;DHT22;7654;45.308;-75.096;2023-05-07T15:55:47;21.60;82.00